Maersk_kyrenia — VRGM8 — position and weather

sailwx.info

Track history (hours):
 
Tides and Currents Weather Stations Pressure Air Temp Water Temp Dewpoint Dewpoint Depression Visibility Wind Speed Wind Dir Waves Ship Positions

Maersk_kyrenia

Last reported at 2014-Oct-31 16:31 UTC. Time now 2014-Oct-31 16:37 UTC.
Position N 51°57' E 004°02'.

Length 300 m; draft 12.6 m.

MMSI: 477733600.

Date/timePositionNaut miles runAvg speedWind from/ knotsBaromVisibWave heightAir tempDewpointWater temp
2014-Oct-31 16:31N 51°57' E 004°02'0 0.0
2014-Oct-31 15:31N 51°57' E 004°02'0 0.0
2014-Oct-31 14:31N 51°57' E 004°02'0 0.0
2014-Oct-31 13:31N 51°57' E 004°02'0 0.0
2014-Oct-31 12:31N 51°57' E 004°02'0 0.0
2014-Oct-31 11:31N 51°57' E 004°02'0 0.0
2014-Oct-31 10:31N 51°57' E 004°02'0 0.0
2014-Oct-31 09:31N 51°57' E 004°02'0 0.0
2014-Oct-31 08:32N 51°57' E 004°02'0 0.0
2014-Oct-31 07:32N 51°57' E 004°02'0 0.0
2014-Oct-31 06:32N 51°57' E 004°02'0 0.1
2014-Oct-31 05:33N 51°57' E 004°02'2 2.0
2014-Oct-31 04:34N 51°59' E 004°02'1010.1
2014-Oct-31 03:33N 52°02' E 003°47'1615.6
2014-Oct-31 02:34N 52°18' E 003°47'1716.5
2014-Oct-31 01:33N 52°34' E 003°52'1716.6
2014-Oct-31 00:34N 52°51' E 003°58'1615.8
2014-Oct-30 23:33N 53°04' E 004°12'1515.3
2014-Oct-30 22:33N 53°16' E 004°28'1514.7
2014-Oct-30 21:32N 53°29' E 004°40'1414.8
2014-Oct-30 20:34N 53°35' E 005°02'1615.7
2014-Oct-30 19:34N 53°40' E 005°27'1716.9
2014-Oct-30 18:33N 53°45' E 005°55'5817.6
2014-Oct-30 15:17N 53°60' E 007°29'1013.8
2014-Oct-30 14:32N 53°54' E 007°44'1414.0
2014-Oct-30 13:34N 53°50' E 008°06'1413.6
2014-Oct-30 12:34N 53°40' E 008°23'7 6.7
2014-Oct-30 11:31N 53°35' E 008°31'0 0.0
2014-Oct-30 10:31N 53°35' E 008°31'0 0.0
2014-Oct-30 09:31N 53°35' E 008°31'0 0.0
2014-Oct-30 08:31N 53°35' E 008°31'0 0.0
2014-Oct-30 07:31N 53°35' E 008°31'0 0.0
2014-Oct-30 06:28N 53°35' E 008°31'0 0.0
2014-Oct-30 05:33N 53°35' E 008°31'0 0.0
2014-Oct-30 04:33N 53°35' E 008°31'0 0.0
2014-Oct-30 03:33N 53°35' E 008°31'0 0.0
2014-Oct-30 02:33N 53°35' E 008°31'0 0.0
2014-Oct-30 01:33N 53°35' E 008°31'0 0.0
2014-Oct-30 00:33N 53°35' E 008°31'0 0.0
2014-Oct-29 23:33N 53°35' E 008°31'0 0.0
2014-Oct-29 22:33N 53°35' E 008°31'0 0.0
2014-Oct-29 21:33N 53°35' E 008°31'0 0.0
2014-Oct-29 20:33N 53°35' E 008°31'0 0.0
2014-Oct-29 19:33N 53°35' E 008°31'0 0.0
2014-Oct-29 18:33N 53°35' E 008°31'0 0.0
2014-Oct-29 17:33N 53°35' E 008°31'0 0.0
2014-Oct-29 16:33N 53°35' E 008°31'0 0.0
2014-Oct-29 15:33N 53°35' E 008°31'0 0.0
2014-Oct-29 14:33N 53°35' E 008°31'0 0.0
2014-Oct-29 13:32N 53°35' E 008°31'0 0.0
2014-Oct-29 12:32N 53°35' E 008°31'0 0.1
2014-Oct-29 11:33N 53°35' E 008°31'9 9.3
2014-Oct-29 10:33N 53°42' E 008°20'1817.7
2014-Oct-29 09:33N 53°52' E 007°55'4611.2
2014-Oct-29 05:30N 53°47' E 006°38'1311.4
2014-Oct-29 04:23N 53°44' E 006°17'1011.7
2014-Oct-29 03:33N 53°41' E 006°02'1211.8
2014-Oct-29 02:33N 53°37' E 005°43'1211.8
2014-Oct-29 01:33N 53°33' E 005°24'1211.8
2014-Oct-29 00:33N 53°29' E 005°05'1212.1
2014-Oct-28 23:33N 53°25' E 004°46'1212.1
2014-Oct-28 22:33N 53°15' E 004°35'1212.2
2014-Oct-28 21:33N 53°04' E 004°25'1212.3
2014-Oct-28 20:33N 52°53' E 004°16'1313.4
2014-Oct-28 19:33N 52°42' E 004°03'1414.5
2014-Oct-28 18:33N 52°31' E 003°48'1515.0
2014-Oct-28 17:33N 52°18' E 003°36'1615.8
2014-Oct-28 16:33N 52°04' E 003°24'1515.3
2014-Oct-28 15:33N 51°49' E 003°18'1615.7
2014-Oct-28 14:33N 51°34' E 003°09'10 9.8
2014-Oct-28 13:31N 51°24' E 003°10'1515.6
2014-Oct-28 12:33N 51°26' E 003°34'1111.3
2014-Oct-28 11:33N 51°21' E 003°51'1010.1
2014-Oct-28 10:33N 51°22' E 004°07'7 7.2
2014-Oct-28 09:34N 51°18' E 004°16'1 0.8
2014-Oct-28 08:32N 51°18' E 004°15'0 0.0
2014-Oct-28 07:26N 51°18' E 004°15'0 0.0
2014-Oct-28 06:17N 51°18' E 004°15'0 0.0
2014-Oct-28 05:29N 51°18' E 004°15'0 0.0
2014-Oct-28 04:32N 51°18' E 004°15'0 0.0
2014-Oct-28 03:32N 51°18' E 004°15'0 0.0
2014-Oct-28 02:29N 51°18' E 004°15'0 0.0
2014-Oct-28 01:29N 51°18' E 004°15'0 0.0
2014-Oct-28 00:29N 51°18' E 004°15'0 0.0
2014-Oct-27 23:29N 51°18' E 004°15'0 0.0
2014-Oct-27 22:11N 51°18' E 004°15'0 0.0
2014-Oct-27 21:29N 51°18' E 004°15'0 0.0
2014-Oct-27 20:29N 51°18' E 004°15'0 0.0
2014-Oct-27 19:28N 51°18' E 004°15'0 0.0
2014-Oct-27 18:22N 51°18' E 004°15'0 0.0
2014-Oct-27 17:28N 51°18' E 004°15'0 0.0
2014-Oct-27 16:28N 51°18' E 004°15'0 0.0
2014-Oct-27 15:28N 51°18' E 004°15'0 0.0
2014-Oct-27 14:28N 51°18' E 004°15'0 0.0
2014-Oct-27 13:16N 51°18' E 004°15'0 0.0
2014-Oct-27 12:10N 51°18' E 004°16'0 0.0
2014-Oct-27 11:28N 51°18' E 004°15'0 0.0
2014-Oct-27 10:31N 51°18' E 004°16'0 0.0
2014-Oct-27 09:28N 51°18' E 004°15'0 0.0
2014-Oct-27 08:10N 51°18' E 004°15'0 0.0
2014-Oct-27 07:25N 51°18' E 004°15'0 0.0
2014-Oct-27 06:28N 51°18' E 004°15'0 0.0
2014-Oct-27 05:28N 51°18' E 004°15'0 0.0
2014-Oct-27 04:16N 51°18' E 004°15'0 0.0
2014-Oct-27 03:32N 51°18' E 004°15'4 3.9
2014-Oct-27 02:33N 51°21' E 004°14'1110.8
2014-Oct-27 01:34N 51°25' E 003°58'1111.1
2014-Oct-27 00:34N 51°26' E 003°40'1111.0
2014-Oct-26 23:33N 51°24' E 003°23'1312.2
2014-Oct-26 22:31N 51°25' E 003°03'1310.3
2014-Oct-26 21:18N 51°23' E 002°43'912.2
2014-Oct-26 20:33N 51°21' E 002°28'1515.0
2014-Oct-26 19:34N 51°20' E 002°04'1616.5
2014-Oct-26 18:34N 51°33' E 001°49'1515.4
2014-Oct-26 17:33N 51°48' E 001°44'1111.3
2014-Oct-26 16:33N 51°56' E 001°31'9 8.7
2014-Oct-26 15:34N 51°58' E 001°17'0 0.1
2014-Oct-26 14:33N 51°58' E 001°17'0 0.0
2014-Oct-26 13:33N 51°58' E 001°17'0 0.0
2014-Oct-26 12:33N 51°58' E 001°17'0 0.0
2014-Oct-26 11:33N 51°58' E 001°17'0 0.0
2014-Oct-26 10:32N 51°58' E 001°17'0 0.0
2014-Oct-26 09:32N 51°58' E 001°17'0 0.0
2014-Oct-26 08:32N 51°58' E 001°17'0 0.0
2014-Oct-26 07:32N 51°58' E 001°17'0 0.0
2014-Oct-26 06:32N 51°58' E 001°17'0 0.0
2014-Oct-26 05:32N 51°58' E 001°17'0 0.0
2014-Oct-26 04:32N 51°58' E 001°17'0 0.0
2014-Oct-26 03:32N 51°58' E 001°17'0 0.0
2014-Oct-26 02:32N 51°58' E 001°17'0 0.0
2014-Oct-26 01:32N 51°58' E 001°17'0 0.0
2014-Oct-26 00:32N 51°58' E 001°17'0 0.0
2014-Oct-25 23:32N 51°58' E 001°17'0 0.0
2014-Oct-25 22:32N 51°58' E 001°17'0 0.0
2014-Oct-25 21:32N 51°58' E 001°17'0 0.0
2014-Oct-25 20:32N 51°58' E 001°17'0 0.0
2014-Oct-25 19:32N 51°58' E 001°17'0 0.0
2014-Oct-25 18:32N 51°58' E 001°17'0 0.0
2014-Oct-25 17:32N 51°58' E 001°17'1 0.9
2014-Oct-25 16:34N 51°57' E 001°18'5 5.4
2014-Oct-25 15:33N 51°56' E 001°26'9 9.0
2014-Oct-25 14:33N 51°52' E 001°40'7 6.7
2014-Oct-25 13:33N 51°48' E 001°48'1010.2
2014-Oct-25 12:33N 51°38' E 001°51'1010.0
2014-Oct-25 11:33N 51°29' E 001°55'1313.0
2014-Oct-25 10:34N 51°18' E 002°08'7 7.4
2014-Oct-25 09:33N 51°13' E 001°59'1110.9
2014-Oct-25 08:33N 51°07' E 001°45'1010.2
2014-Oct-25 07:33N 50°60' E 001°33'1111.3
2014-Oct-25 06:33N 50°50' E 001°25'4213.0
2014-Oct-25 03:21N 50°25' E 000°32'37915.0
2014-Oct-24 02:00N 46°42' W 007°12'35415.0 220 / 81020.0 5.4 0.518.014.618.0
2014-Oct-23 02:22N 41°06' W 009°50'1315.1
2014-Oct-23 01:32N 40°54' W 009°50'1714.8
2014-Oct-23 00:23N 40°37' W 009°50'8714.9
2014-Oct-22 18:33N 39°10' W 009°51'1514.9
2014-Oct-22 17:33N 38°55' W 009°51'1514.5
2014-Oct-22 16:33N 38°41' W 009°50'1515.1
2014-Oct-22 15:33N 38°26' W 009°46'1515.5
2014-Oct-22 14:33N 38°11' W 009°42'1515.4
2014-Oct-22 13:33N 37°56' W 009°37'1017.3
2014-Oct-22 13:00N 37°48' W 009°30'716.2 030 / 121025.4 5.4 0.523.019.121.0
2014-Oct-22 12:33N 37°41' W 009°32'1515.2
2014-Oct-22 11:33N 37°26' W 009°28'1515.1
2014-Oct-22 10:33N 37°11' W 009°25'1515.2
2014-Oct-22 09:33N 36°57' W 009°20'1614.3
2014-Oct-22 08:28N 36°44' W 009°08'2915.1
2014-Oct-22 06:34N 36°36' W 008°34'1615.5
2014-Oct-22 05:33N 36°31' W 008°16'1615.8
2014-Oct-22 04:33N 36°26' W 007°57'11615.9
2014-Oct-21 21:14N 35°58' W 005°37'1014.5
2014-Oct-21 20:32N 36°01' W 005°26'7 5.0
2014-Oct-21 19:04N 36°09' W 005°26'0 0.0
2014-Oct-21 18:31N 36°09' W 005°26'0 0.0
2014-Oct-21 17:33N 36°09' W 005°26'0 0.0
2014-Oct-21 16:33N 36°09' W 005°26'  
Track history (hours):
 
Tides and Currents Weather Stations Pressure Air Temp Water Temp Dewpoint Dewpoint Depression Visibility Wind Speed Wind Dir Waves Ship Positions

Maersk_kyrenia

Last reported at 2014-Oct-31 16:31 UTC. Time now 2014-Oct-31 16:37 UTC.
Position N 51°57' E 004°02'.

Length 300 m; draft 12.6 m.

MMSI: 477733600.

Date/timePositionNaut miles runAvg speedWind from/ knotsBaromVisibWave heightAir tempDewpointWater temp
2014-Oct-31 16:31N 51°57' E 004°02'0 0.0
2014-Oct-31 15:31N 51°57' E 004°02'0 0.0
2014-Oct-31 14:31N 51°57' E 004°02'0 0.0
2014-Oct-31 13:31N 51°57' E 004°02'0 0.0
2014-Oct-31 12:31N 51°57' E 004°02'0 0.0
2014-Oct-31 11:31N 51°57' E 004°02'0 0.0
2014-Oct-31 10:31N 51°57' E 004°02'0 0.0
2014-Oct-31 09:31N 51°57' E 004°02'0 0.0
2014-Oct-31 08:32N 51°57' E 004°02'0 0.0
2014-Oct-31 07:32N 51°57' E 004°02'0 0.0
2014-Oct-31 06:32N 51°57' E 004°02'0 0.1
2014-Oct-31 05:33N 51°57' E 004°02'2 2.0
2014-Oct-31 04:34N 51°59' E 004°02'1010.1
2014-Oct-31 03:33N 52°02' E 003°47'1615.6
2014-Oct-31 02:34N 52°18' E 003°47'1716.5
2014-Oct-31 01:33N 52°34' E 003°52'1716.6
2014-Oct-31 00:34N 52°51' E 003°58'1615.8
2014-Oct-30 23:33N 53°04' E 004°12'1515.3
2014-Oct-30 22:33N 53°16' E 004°28'1514.7
2014-Oct-30 21:32N 53°29' E 004°40'1414.8
2014-Oct-30 20:34N 53°35' E 005°02'1615.7
2014-Oct-30 19:34N 53°40' E 005°27'1716.9
2014-Oct-30 18:33N 53°45' E 005°55'5817.6
2014-Oct-30 15:17N 53°60' E 007°29'1013.8
2014-Oct-30 14:32N 53°54' E 007°44'1414.0
2014-Oct-30 13:34N 53°50' E 008°06'1413.6
2014-Oct-30 12:34N 53°40' E 008°23'7 6.7
2014-Oct-30 11:31N 53°35' E 008°31'0 0.0
2014-Oct-30 10:31N 53°35' E 008°31'0 0.0
2014-Oct-30 09:31N 53°35' E 008°31'0 0.0
2014-Oct-30 08:31N 53°35' E 008°31'0 0.0
2014-Oct-30 07:31N 53°35' E 008°31'0 0.0
2014-Oct-30 06:28N 53°35' E 008°31'0 0.0
2014-Oct-30 05:33N 53°35' E 008°31'0 0.0
2014-Oct-30 04:33N 53°35' E 008°31'0 0.0
2014-Oct-30 03:33N 53°35' E 008°31'0 0.0
2014-Oct-30 02:33N 53°35' E 008°31'0 0.0
2014-Oct-30 01:33N 53°35' E 008°31'0 0.0
2014-Oct-30 00:33N 53°35' E 008°31'0 0.0
2014-Oct-29 23:33N 53°35' E 008°31'0 0.0
2014-Oct-29 22:33N 53°35' E 008°31'0 0.0
2014-Oct-29 21:33N 53°35' E 008°31'0 0.0
2014-Oct-29 20:33N 53°35' E 008°31'0 0.0
2014-Oct-29 19:33N 53°35' E 008°31'0 0.0
2014-Oct-29 18:33N 53°35' E 008°31'0 0.0
2014-Oct-29 17:33N 53°35' E 008°31'0 0.0
2014-Oct-29 16:33N 53°35' E 008°31'0 0.0
2014-Oct-29 15:33N 53°35' E 008°31'0 0.0
2014-Oct-29 14:33N 53°35' E 008°31'0 0.0
2014-Oct-29 13:32N 53°35' E 008°31'0 0.0
2014-Oct-29 12:32N 53°35' E 008°31'0 0.1
2014-Oct-29 11:33N 53°35' E 008°31'9 9.3
2014-Oct-29 10:33N 53°42' E 008°20'1817.7
2014-Oct-29 09:33N 53°52' E 007°55'4611.2
2014-Oct-29 05:30N 53°47' E 006°38'1311.4
2014-Oct-29 04:23N 53°44' E 006°17'1011.7
2014-Oct-29 03:33N 53°41' E 006°02'1211.8
2014-Oct-29 02:33N 53°37' E 005°43'1211.8
2014-Oct-29 01:33N 53°33' E 005°24'1211.8
2014-Oct-29 00:33N 53°29' E 005°05'1212.1
2014-Oct-28 23:33N 53°25' E 004°46'1212.1
2014-Oct-28 22:33N 53°15' E 004°35'1212.2
2014-Oct-28 21:33N 53°04' E 004°25'1212.3
2014-Oct-28 20:33N 52°53' E 004°16'1313.4
2014-Oct-28 19:33N 52°42' E 004°03'1414.5
2014-Oct-28 18:33N 52°31' E 003°48'1515.0
2014-Oct-28 17:33N 52°18' E 003°36'1615.8
2014-Oct-28 16:33N 52°04' E 003°24'1515.3
2014-Oct-28 15:33N 51°49' E 003°18'1615.7
2014-Oct-28 14:33N 51°34' E 003°09'10 9.8
2014-Oct-28 13:31N 51°24' E 003°10'1515.6
2014-Oct-28 12:33N 51°26' E 003°34'1111.3
2014-Oct-28 11:33N 51°21' E 003°51'1010.1
2014-Oct-28 10:33N 51°22' E 004°07'7 7.2
2014-Oct-28 09:34N 51°18' E 004°16'1 0.8
2014-Oct-28 08:32N 51°18' E 004°15'0 0.0
2014-Oct-28 07:26N 51°18' E 004°15'0 0.0
2014-Oct-28 06:17N 51°18' E 004°15'0 0.0
2014-Oct-28 05:29N 51°18' E 004°15'0 0.0
2014-Oct-28 04:32N 51°18' E 004°15'0 0.0
2014-Oct-28 03:32N 51°18' E 004°15'0 0.0
2014-Oct-28 02:29N 51°18' E 004°15'0 0.0
2014-Oct-28 01:29N 51°18' E 004°15'0 0.0
2014-Oct-28 00:29N 51°18' E 004°15'0 0.0
2014-Oct-27 23:29N 51°18' E 004°15'0 0.0
2014-Oct-27 22:11N 51°18' E 004°15'0 0.0
2014-Oct-27 21:29N 51°18' E 004°15'0 0.0
2014-Oct-27 20:29N 51°18' E 004°15'0 0.0
2014-Oct-27 19:28N 51°18' E 004°15'0 0.0
2014-Oct-27 18:22N 51°18' E 004°15'0 0.0
2014-Oct-27 17:28N 51°18' E 004°15'0 0.0
2014-Oct-27 16:28N 51°18' E 004°15'0 0.0
2014-Oct-27 15:28N 51°18' E 004°15'0 0.0
2014-Oct-27 14:28N 51°18' E 004°15'0 0.0
2014-Oct-27 13:16N 51°18' E 004°15'0 0.0
2014-Oct-27 12:10N 51°18' E 004°16'0 0.0
2014-Oct-27 11:28N 51°18' E 004°15'0 0.0
2014-Oct-27 10:31N 51°18' E 004°16'0 0.0
2014-Oct-27 09:28N 51°18' E 004°15'0 0.0
2014-Oct-27 08:10N 51°18' E 004°15'0 0.0
2014-Oct-27 07:25N 51°18' E 004°15'0 0.0
2014-Oct-27 06:28N 51°18' E 004°15'0 0.0
2014-Oct-27 05:28N 51°18' E 004°15'0 0.0
2014-Oct-27 04:16N 51°18' E 004°15'0 0.0
2014-Oct-27 03:32N 51°18' E 004°15'4 3.9
2014-Oct-27 02:33N 51°21' E 004°14'1110.8
2014-Oct-27 01:34N 51°25' E 003°58'1111.1
2014-Oct-27 00:34N 51°26' E 003°40'1111.0
2014-Oct-26 23:33N 51°24' E 003°23'1312.2
2014-Oct-26 22:31N 51°25' E 003°03'1310.3
2014-Oct-26 21:18N 51°23' E 002°43'912.2
2014-Oct-26 20:33N 51°21' E 002°28'1515.0
2014-Oct-26 19:34N 51°20' E 002°04'1616.5
2014-Oct-26 18:34N 51°33' E 001°49'1515.4
2014-Oct-26 17:33N 51°48' E 001°44'1111.3
2014-Oct-26 16:33N 51°56' E 001°31'9 8.7
2014-Oct-26 15:34N 51°58' E 001°17'0 0.1
2014-Oct-26 14:33N 51°58' E 001°17'0 0.0
2014-Oct-26 13:33N 51°58' E 001°17'0 0.0
2014-Oct-26 12:33N 51°58' E 001°17'0 0.0
2014-Oct-26 11:33N 51°58' E 001°17'0 0.0
2014-Oct-26 10:32N 51°58' E 001°17'0 0.0
2014-Oct-26 09:32N 51°58' E 001°17'0 0.0
2014-Oct-26 08:32N 51°58' E 001°17'0 0.0
2014-Oct-26 07:32N 51°58' E 001°17'0 0.0
2014-Oct-26 06:32N 51°58' E 001°17'0 0.0
2014-Oct-26 05:32N 51°58' E 001°17'0 0.0
2014-Oct-26 04:32N 51°58' E 001°17'0 0.0
2014-Oct-26 03:32N 51°58' E 001°17'0 0.0
2014-Oct-26 02:32N 51°58' E 001°17'0 0.0
2014-Oct-26 01:32N 51°58' E 001°17'0 0.0
2014-Oct-26 00:32N 51°58' E 001°17'0 0.0
2014-Oct-25 23:32N 51°58' E 001°17'0 0.0
2014-Oct-25 22:32N 51°58' E 001°17'0 0.0
2014-Oct-25 21:32N 51°58' E 001°17'0 0.0
2014-Oct-25 20:32N 51°58' E 001°17'0 0.0
2014-Oct-25 19:32N 51°58' E 001°17'0 0.0
2014-Oct-25 18:32N 51°58' E 001°17'0 0.0
2014-Oct-25 17:32N 51°58' E 001°17'1 0.9
2014-Oct-25 16:34N 51°57' E 001°18'5 5.4
2014-Oct-25 15:33N 51°56' E 001°26'9 9.0
2014-Oct-25 14:33N 51°52' E 001°40'7 6.7
2014-Oct-25 13:33N 51°48' E 001°48'1010.2
2014-Oct-25 12:33N 51°38' E 001°51'1010.0
2014-Oct-25 11:33N 51°29' E 001°55'1313.0
2014-Oct-25 10:34N 51°18' E 002°08'7 7.4
2014-Oct-25 09:33N 51°13' E 001°59'1110.9
2014-Oct-25 08:33N 51°07' E 001°45'1010.2
2014-Oct-25 07:33N 50°60' E 001°33'1111.3
2014-Oct-25 06:33N 50°50' E 001°25'4213.0
2014-Oct-25 03:21N 50°25' E 000°32'37915.0
2014-Oct-24 02:00N 46°42' W 007°12'35415.0 220 / 81020.0 5.4 0.518.014.618.0
2014-Oct-23 02:22N 41°06' W 009°50'1315.1
2014-Oct-23 01:32N 40°54' W 009°50'1714.8
2014-Oct-23 00:23N 40°37' W 009°50'8714.9
2014-Oct-22 18:33N 39°10' W 009°51'1514.9
2014-Oct-22 17:33N 38°55' W 009°51'1514.5
2014-Oct-22 16:33N 38°41' W 009°50'1515.1
2014-Oct-22 15:33N 38°26' W 009°46'1515.5
2014-Oct-22 14:33N 38°11' W 009°42'1515.4
2014-Oct-22 13:33N 37°56' W 009°37'1017.3
2014-Oct-22 13:00N 37°48' W 009°30'716.2 030 / 121025.4 5.4 0.523.019.121.0
2014-Oct-22 12:33N 37°41' W 009°32'1515.2
2014-Oct-22 11:33N 37°26' W 009°28'1515.1
2014-Oct-22 10:33N 37°11' W 009°25'1515.2
2014-Oct-22 09:33N 36°57' W 009°20'1614.3
2014-Oct-22 08:28N 36°44' W 009°08'2915.1
2014-Oct-22 06:34N 36°36' W 008°34'1615.5
2014-Oct-22 05:33N 36°31' W 008°16'1615.8
2014-Oct-22 04:33N 36°26' W 007°57'11615.9
2014-Oct-21 21:14N 35°58' W 005°37'1014.5
2014-Oct-21 20:32N 36°01' W 005°26'7 5.0
2014-Oct-21 19:04N 36°09' W 005°26'0 0.0
2014-Oct-21 18:31N 36°09' W 005°26'0 0.0
2014-Oct-21 17:33N 36°09' W 005°26'0 0.0
2014-Oct-21 16:33N 36°09' W 005°26'  

Dump ship's entire track history